sensor_id;sensor_type;location;lat;lon;timestamp;P1;durP1;ratioP1;P2;durP2;ratioP2
24995;SDS011;13016;52.162;21.034;2022-10-26T00:00:04;14.10;;;9.50;;
24995;SDS011;13016;52.162;21.034;2022-10-26T00:02:30;13.30;;;9.73;;
24995;SDS011;13016;52.162;21.034;2022-10-26T00:04:56;11.70;;;8.85;;
24995;SDS011;13016;52.162;21.034;2022-10-26T00:07:31;16.77;;;9.82;;
24995;SDS011;13016;52.162;21.034;2022-10-26T00:09:56;15.10;;;9.30;;
24995;SDS011;13016;52.162;21.034;2022-10-26T00:12:21;16.58;;;10.02;;
24995;SDS011;13016;52.162;21.034;2022-10-26T00:14:47;12.73;;;9.43;;
24995;SDS011;13016;52.162;21.034;2022-10-26T00:17:12;13.02;;;9.32;;
24995;SDS011;13016;52.162;21.034;2022-10-26T00:19:37;16.90;;;10.43;;
24995;SDS011;13016;52.162;21.034;2022-10-26T00:22:03;16.00;;;10.27;;
24995;SDS011;13016;52.162;21.034;2022-10-26T00:24:28;15.57;;;10.07;;
24995;SDS011;13016;52.162;21.034;2022-10-26T00:26:53;14.10;;;9.52;;
24995;SDS011;13016;52.162;21.034;2022-10-26T00:29:18;16.30;;;10.10;;
24995;SDS011;13016;52.162;21.034;2022-10-26T00:31:44;14.55;;;9.88;;
24995;SDS011;13016;52.162;21.034;2022-10-26T00:34:10;18.63;;;10.77;;
24995;SDS011;13016;52.162;21.034;2022-10-26T00:36:36;14.77;;;10.27;;
24995;SDS011;13016;52.162;21.034;2022-10-26T00:41:30;15.75;;;11.02;;
24995;SDS011;13016;52.162;21.034;2022-10-26T00:43:58;17.58;;;10.93;;
24995;SDS011;13016;52.162;21.034;2022-10-26T00:48:51;21.37;;;11.10;;
24995;SDS011;13016;52.162;21.034;2022-10-26T00:51:28;16.50;;;11.40;;
24995;SDS011;13016;52.162;21.034;2022-10-26T00:53:55;19.77;;;10.85;;
24995;SDS011;13016;52.162;21.034;2022-10-26T00:56:24;14.38;;;10.27;;
24995;SDS011;13016;52.162;21.034;2022-10-26T00:58:49;19.88;;;11.93;;
24995;SDS011;13016;52.162;21.034;2022-10-26T01:07:03;18.23;;;12.38;;
24995;SDS011;13016;52.162;21.034;2022-10-26T01:09:29;19.67;;;13.23;;
24995;SDS011;13016;52.162;21.034;2022-10-26T01:11:56;18.73;;;12.73;;
24995;SDS011;13016;52.162;21.034;2022-10-26T01:27:58;21.48;;;13.45;;
24995;SDS011;13016;52.162;21.034;2022-10-26T01:30:39;16.58;;;13.27;;
24995;SDS011;13016;52.162;21.034;2022-10-26T01:36:02;20.17;;;12.82;;
24995;SDS011;13016;52.162;21.034;2022-10-26T01:43:57;20.40;;;12.75;;
24995;SDS011;13016;52.162;21.034;2022-10-26T01:46:26;18.30;;;12.13;;
24995;SDS011;13016;52.162;21.034;2022-10-26T01:48:57;20.67;;;12.60;;
24995;SDS011;13016;52.162;21.034;2022-10-26T01:51:25;15.68;;;12.07;;
24995;SDS011;13016;52.162;21.034;2022-10-26T01:53:52;17.90;;;11.82;;
24995;SDS011;13016;52.162;21.034;2022-10-26T01:56:21;17.80;;;12.23;;
24995;SDS011;13016;52.162;21.034;2022-10-26T01:58:59;15.73;;;11.10;;
24995;SDS011;13016;52.162;21.034;2022-10-26T02:12:20;15.68;;;11.52;;
24995;SDS011;13016;52.162;21.034;2022-10-26T02:15:05;16.52;;;12.02;;
24995;SDS011;13016;52.162;21.034;2022-10-26T02:20:45;17.50;;;11.00;;
24995;SDS011;13016;52.162;21.034;2022-10-26T02:23:14;15.43;;;11.10;;
24995;SDS011;13016;52.162;21.034;2022-10-26T02:25:48;17.58;;;11.25;;
24995;SDS011;13016;52.162;21.034;2022-10-26T02:28:20;14.45;;;10.75;;
24995;SDS011;13016;52.162;21.034;2022-10-26T02:30:53;13.88;;;10.45;;
24995;SDS011;13016;52.162;21.034;2022-10-26T02:33:22;18.88;;;11.35;;
24995;SDS011;13016;52.162;21.034;2022-10-26T02:35:51;16.92;;;10.70;;
24995;SDS011;13016;52.162;21.034;2022-10-26T02:38:18;17.25;;;11.48;;
24995;SDS011;13016;52.162;21.034;2022-10-26T02:40:45;21.15;;;12.25;;
24995;SDS011;13016;52.162;21.034;2022-10-26T02:43:14;16.30;;;11.85;;
24995;SDS011;13016;52.162;21.034;2022-10-26T02:45:42;19.25;;;11.73;;
24995;SDS011;13016;52.162;21.034;2022-10-26T02:48:11;18.77;;;12.60;;
24995;SDS011;13016;52.162;21.034;2022-10-26T02:51:10;18.00;;;11.80;;
24995;SDS011;13016;52.162;21.034;2022-10-26T02:53:34;18.73;;;12.57;;
24995;SDS011;13016;52.162;21.034;2022-10-26T02:56:17;18.40;;;13.15;;
24995;SDS011;13016;52.162;21.034;2022-10-26T02:58:49;20.88;;;12.55;;
24995;SDS011;13016;52.162;21.034;2022-10-26T03:01:19;17.77;;;12.88;;
24995;SDS011;13016;52.162;21.034;2022-10-26T03:03:45;17.75;;;12.50;;
24995;SDS011;13016;52.162;21.034;2022-10-26T03:06:10;18.15;;;12.55;;
24995;SDS011;13016;52.162;21.034;2022-10-26T03:08:35;18.83;;;13.35;;
24995;SDS011;13016;52.162;21.034;2022-10-26T03:11:01;21.35;;;13.40;;
24995;SDS011;13016;52.162;21.034;2022-10-26T03:13:26;20.17;;;13.07;;
24995;SDS011;13016;52.162;21.034;2022-10-26T03:15:54;18.42;;;12.77;;
24995;SDS011;13016;52.162;21.034;2022-10-26T03:18:20;19.45;;;13.30;;
24995;SDS011;13016;52.162;21.034;2022-10-26T03:20:45;20.48;;;13.70;;
24995;SDS011;13016;52.162;21.034;2022-10-26T03:23:10;20.38;;;14.02;;
24995;SDS011;13016;52.162;21.034;2022-10-26T03:25:35;20.90;;;13.52;;
24995;SDS011;13016;52.162;21.034;2022-10-26T03:28:01;19.85;;;14.15;;
24995;SDS011;13016;52.162;21.034;2022-10-26T03:30:28;22.90;;;14.30;;
24995;SDS011;13016;52.162;21.034;2022-10-26T03:32:54;21.98;;;15.25;;
24995;SDS011;13016;52.162;21.034;2022-10-26T03:35:20;20.50;;;15.07;;
24995;SDS011;13016;52.162;21.034;2022-10-26T03:37:45;25.20;;;15.13;;
24995;SDS011;13016;52.162;21.034;2022-10-26T03:40:11;20.90;;;14.27;;
24995;SDS011;13016;52.162;21.034;2022-10-26T03:42:36;22.27;;;15.13;;
24995;SDS011;13016;52.162;21.034;2022-10-26T03:45:02;19.67;;;14.65;;
24995;SDS011;13016;52.162;21.034;2022-10-26T03:47:28;21.55;;;14.48;;
24995;SDS011;13016;52.162;21.034;2022-10-26T03:49:54;20.70;;;13.98;;
24995;SDS011;13016;52.162;21.034;2022-10-26T03:52:19;19.65;;;14.50;;
24995;SDS011;13016;52.162;21.034;2022-10-26T03:54:44;19.95;;;14.27;;
24995;SDS011;13016;52.162;21.034;2022-10-26T03:57:10;20.98;;;14.57;;
24995;SDS011;13016;52.162;21.034;2022-10-26T03:59:35;18.42;;;13.88;;
24995;SDS011;13016;52.162;21.034;2022-10-26T04:02:00;20.38;;;14.45;;
24995;SDS011;13016;52.162;21.034;2022-10-26T04:04:26;25.42;;;14.18;;
24995;SDS011;13016;52.162;21.034;2022-10-26T04:06:51;21.38;;;14.27;;
24995;SDS011;13016;52.162;21.034;2022-10-26T04:09:16;21.40;;;14.70;;
24995;SDS011;13016;52.162;21.034;2022-10-26T04:11:42;21.40;;;15.18;;
24995;SDS011;13016;52.162;21.034;2022-10-26T04:14:07;22.95;;;14.75;;
24995;SDS011;13016;52.162;21.034;2022-10-26T04:16:32;20.88;;;14.45;;
24995;SDS011;13016;52.162;21.034;2022-10-26T04:18:57;25.90;;;14.98;;
24995;SDS011;13016;52.162;21.034;2022-10-26T04:21:23;19.63;;;14.75;;
24995;SDS011;13016;52.162;21.034;2022-10-26T04:23:48;20.00;;;14.57;;
24995;SDS011;13016;52.162;21.034;2022-10-26T04:26:13;23.95;;;15.57;;
24995;SDS011;13016;52.162;21.034;2022-10-26T04:28:38;26.17;;;16.35;;
24995;SDS011;13016;52.162;21.034;2022-10-26T04:31:04;21.23;;;15.20;;
24995;SDS011;13016;52.162;21.034;2022-10-26T04:33:29;21.50;;;15.00;;
24995;SDS011;13016;52.162;21.034;2022-10-26T04:35:58;23.95;;;14.63;;
24995;SDS011;13016;52.162;21.034;2022-10-26T04:38:24;21.98;;;15.18;;
24995;SDS011;13016;52.162;21.034;2022-10-26T04:40:49;27.80;;;15.30;;
24995;SDS011;13016;52.162;21.034;2022-10-26T04:43:14;22.25;;;14.82;;
24995;SDS011;13016;52.162;21.034;2022-10-26T04:45:40;21.05;;;14.43;;
24995;SDS011;13016;52.162;21.034;2022-10-26T04:48:06;23.13;;;15.85;;
24995;SDS011;13016;52.162;21.034;2022-10-26T04:50:34;24.85;;;15.73;;
24995;SDS011;13016;52.162;21.034;2022-10-26T04:52:59;23.30;;;15.18;;
24995;SDS011;13016;52.162;21.034;2022-10-26T04:55:25;22.45;;;16.70;;
24995;SDS011;13016;52.162;21.034;2022-10-26T04:57:50;24.55;;;16.27;;
24995;SDS011;13016;52.162;21.034;2022-10-26T05:00:16;24.45;;;16.92;;
24995;SDS011;13016;52.162;21.034;2022-10-26T05:02:41;25.50;;;17.33;;
24995;SDS011;13016;52.162;21.034;2022-10-26T05:05:07;24.23;;;17.25;;
24995;SDS011;13016;52.162;21.034;2022-10-26T05:07:32;24.42;;;16.83;;
24995;SDS011;13016;52.162;21.034;2022-10-26T05:09:57;23.25;;;16.88;;
24995;SDS011;13016;52.162;21.034;2022-10-26T05:12:23;25.17;;;17.25;;
24995;SDS011;13016;52.162;21.034;2022-10-26T05:14:48;23.67;;;17.50;;
24995;SDS011;13016;52.162;21.034;2022-10-26T05:17:13;27.70;;;18.55;;
24995;SDS011;13016;52.162;21.034;2022-10-26T05:19:38;29.88;;;19.40;;
24995;SDS011;13016;52.162;21.034;2022-10-26T05:22:04;27.67;;;18.20;;
24995;SDS011;13016;52.162;21.034;2022-10-26T05:24:29;27.23;;;18.02;;
24995;SDS011;13016;52.162;21.034;2022-10-26T05:26:54;28.30;;;18.38;;
24995;SDS011;13016;52.162;21.034;2022-10-26T05:29:20;27.15;;;18.17;;
24995;SDS011;13016;52.162;21.034;2022-10-26T05:31:45;27.40;;;18.40;;
24995;SDS011;13016;52.162;21.034;2022-10-26T05:34:10;30.67;;;19.27;;
24995;SDS011;13016;52.162;21.034;2022-10-26T05:36:35;28.55;;;18.75;;
24995;SDS011;13016;52.162;21.034;2022-10-26T05:41:36;28.67;;;19.05;;
24995;SDS011;13016;52.162;21.034;2022-10-26T06:09:46;21.35;;;15.07;;
24995;SDS011;13016;52.162;21.034;2022-10-26T06:12:12;22.58;;;14.65;;
24995;SDS011;13016;52.162;21.034;2022-10-26T06:14:39;24.58;;;16.33;;
24995;SDS011;13016;52.162;21.034;2022-10-26T06:17:17;24.85;;;17.85;;
24995;SDS011;13016;52.162;21.034;2022-10-26T06:33:43;18.42;;;12.90;;
24995;SDS011;13016;52.162;21.034;2022-10-26T06:42:01;20.15;;;13.77;;
24995;SDS011;13016;52.162;21.034;2022-10-26T06:44:27;21.70;;;13.63;;
24995;SDS011;13016;52.162;21.034;2022-10-26T06:47:05;20.45;;;13.02;;
24995;SDS011;13016;52.162;21.034;2022-10-26T06:52:11;19.70;;;12.40;;
24995;SDS011;13016;52.162;21.034;2022-10-26T06:54:56;21.08;;;12.48;;
24995;SDS011;13016;52.162;21.034;2022-10-26T07:00:04;20.83;;;13.23;;
24995;SDS011;13016;52.162;21.034;2022-10-26T07:02:31;18.20;;;12.38;;
24995;SDS011;13016;52.162;21.034;2022-10-26T07:04:56;21.17;;;12.98;;
24995;SDS011;13016;52.162;21.034;2022-10-26T07:07:22;25.48;;;14.00;;
24995;SDS011;13016;52.162;21.034;2022-10-26T07:09:49;22.75;;;14.88;;
24995;SDS011;13016;52.162;21.034;2022-10-26T07:12:18;21.55;;;14.13;;
24995;SDS011;13016;52.162;21.034;2022-10-26T07:14:43;23.67;;;14.57;;
24995;SDS011;13016;52.162;21.034;2022-10-26T07:17:08;25.73;;;15.07;;
24995;SDS011;13016;52.162;21.034;2022-10-26T07:19:34;24.42;;;14.77;;
24995;SDS011;13016;52.162;21.034;2022-10-26T07:22:05;25.00;;;15.20;;
24995;SDS011;13016;52.162;21.034;2022-10-26T07:24:33;21.67;;;14.57;;
24995;SDS011;13016;52.162;21.034;2022-10-26T07:26:58;23.90;;;14.40;;
24995;SDS011;13016;52.162;21.034;2022-10-26T07:29:24;21.45;;;14.10;;
24995;SDS011;13016;52.162;21.034;2022-10-26T07:31:51;19.52;;;12.90;;
24995;SDS011;13016;52.162;21.034;2022-10-26T07:34:17;24.58;;;13.95;;
24995;SDS011;13016;52.162;21.034;2022-10-26T07:36:42;22.30;;;13.32;;
24995;SDS011;13016;52.162;21.034;2022-10-26T07:39:07;20.23;;;12.73;;
24995;SDS011;13016;52.162;21.034;2022-10-26T07:41:34;18.80;;;12.90;;
24995;SDS011;13016;52.162;21.034;2022-10-26T07:44:02;20.77;;;13.10;;
24995;SDS011;13016;52.162;21.034;2022-10-26T07:46:29;19.08;;;12.43;;
24995;SDS011;13016;52.162;21.034;2022-10-26T07:48:58;17.58;;;11.38;;
24995;SDS011;13016;52.162;21.034;2022-10-26T07:51:23;16.73;;;11.27;;
24995;SDS011;13016;52.162;21.034;2022-10-26T07:53:49;18.95;;;11.88;;
24995;SDS011;13016;52.162;21.034;2022-10-26T07:59:17;16.98;;;11.10;;
24995;SDS011;13016;52.162;21.034;2022-10-26T08:01:42;18.60;;;11.63;;
24995;SDS011;13016;52.162;21.034;2022-10-26T08:06:58;17.23;;;10.60;;
24995;SDS011;13016;52.162;21.034;2022-10-26T08:09:23;13.43;;;9.75;;
24995;SDS011;13016;52.162;21.034;2022-10-26T08:17:42;15.25;;;11.10;;
24995;SDS011;13016;52.162;21.034;2022-10-26T08:20:07;18.30;;;11.25;;
24995;SDS011;13016;52.162;21.034;2022-10-26T08:22:33;17.98;;;11.00;;
24995;SDS011;13016;52.162;21.034;2022-10-26T08:24:58;16.40;;;10.95;;
24995;SDS011;13016;52.162;21.034;2022-10-26T08:27:32;14.80;;;10.70;;
24995;SDS011;13016;52.162;21.034;2022-10-26T08:29:58;15.85;;;10.50;;
24995;SDS011;13016;52.162;21.034;2022-10-26T08:32:23;15.93;;;10.95;;
24995;SDS011;13016;52.162;21.034;2022-10-26T08:34:48;16.70;;;11.90;;
24995;SDS011;13016;52.162;21.034;2022-10-26T08:37:14;18.50;;;11.73;;
24995;SDS011;13016;52.162;21.034;2022-10-26T08:39:39;20.77;;;12.80;;
24995;SDS011;13016;52.162;21.034;2022-10-26T08:42:10;19.15;;;11.88;;
24995;SDS011;13016;52.162;21.034;2022-10-26T08:44:47;20.38;;;13.63;;
24995;SDS011;13016;52.162;21.034;2022-10-26T08:47:18;20.60;;;12.38;;
24995;SDS011;13016;52.162;21.034;2022-10-26T08:52:37;24.38;;;13.88;;
24995;SDS011;13016;52.162;21.034;2022-10-26T08:55:13;25.30;;;13.82;;
24995;SDS011;13016;52.162;21.034;2022-10-26T08:57:42;21.92;;;13.45;;
24995;SDS011;13016;52.162;21.034;2022-10-26T09:00:11;23.25;;;13.73;;
24995;SDS011;13016;52.162;21.034;2022-10-26T09:02:43;20.45;;;13.60;;
24995;SDS011;13016;52.162;21.034;2022-10-26T09:08:28;21.60;;;12.38;;
24995;SDS011;13016;52.162;21.034;2022-10-26T09:22:25;17.77;;;12.57;;
24995;SDS011;13016;52.162;21.034;2022-10-26T09:25:05;18.42;;;12.48;;
24995;SDS011;13016;52.162;21.034;2022-10-26T09:27:42;19.08;;;11.77;;
24995;SDS011;13016;52.162;21.034;2022-10-26T09:33:15;23.23;;;14.48;;
24995;SDS011;13016;52.162;21.034;2022-10-26T09:36:01;18.17;;;12.35;;
24995;SDS011;13016;52.162;21.034;2022-10-26T09:44:53;15.45;;;9.35;;
24995;SDS011;13016;52.162;21.034;2022-10-26T09:47:27;16.25;;;9.25;;
24995;SDS011;13016;52.162;21.034;2022-10-26T09:53:05;15.00;;;9.20;;
24995;SDS011;13016;52.162;21.034;2022-10-26T09:58:49;13.27;;;8.80;;
24995;SDS011;13016;52.162;21.034;2022-10-26T10:01:20;13.45;;;9.00;;
24995;SDS011;13016;52.162;21.034;2022-10-26T10:04:08;12.68;;;8.50;;
24995;SDS011;13016;52.162;21.034;2022-10-26T10:06:37;11.80;;;8.70;;
24995;SDS011;13016;52.162;21.034;2022-10-26T10:09:08;13.15;;;8.73;;
24995;SDS011;13016;52.162;21.034;2022-10-26T10:17:56;14.20;;;9.60;;
24995;SDS011;13016;52.162;21.034;2022-10-26T10:23:51;16.15;;;9.48;;
24995;SDS011;13016;52.162;21.034;2022-10-26T10:26:19;14.10;;;9.50;;
24995;SDS011;13016;52.162;21.034;2022-10-26T10:32:15;14.23;;;10.23;;
24995;SDS011;13016;52.162;21.034;2022-10-26T10:34:42;13.27;;;9.30;;
24995;SDS011;13016;52.162;21.034;2022-10-26T10:40:02;16.73;;;11.35;;
24995;SDS011;13016;52.162;21.034;2022-10-26T10:42:48;17.38;;;11.07;;
24995;SDS011;13016;52.162;21.034;2022-10-26T10:45:25;14.23;;;10.65;;
24995;SDS011;13016;52.162;21.034;2022-10-26T10:48:02;20.05;;;11.95;;
24995;SDS011;13016;52.162;21.034;2022-10-26T10:50:37;16.88;;;11.68;;
24995;SDS011;13016;52.162;21.034;2022-10-26T10:56:10;22.33;;;12.38;;
24995;SDS011;13016;52.162;21.034;2022-10-26T10:58:39;19.83;;;12.00;;
24995;SDS011;13016;52.162;21.034;2022-10-26T11:01:29;19.25;;;12.70;;
24995;SDS011;13016;52.162;21.034;2022-10-26T11:09:20;22.75;;;12.85;;
24995;SDS011;13016;52.162;21.034;2022-10-26T11:17:17;21.23;;;12.18;;
24995;SDS011;13016;52.162;21.034;2022-10-26T11:19:59;17.83;;;12.30;;
24995;SDS011;13016;52.162;21.034;2022-10-26T11:22:34;20.13;;;12.18;;
24995;SDS011;13016;52.162;21.034;2022-10-26T11:30:36;17.33;;;11.40;;
24995;SDS011;13016;52.162;21.034;2022-10-26T11:33:18;16.67;;;11.70;;
24995;SDS011;13016;52.162;21.034;2022-10-26T11:35:58;17.50;;;11.15;;
24995;SDS011;13016;52.162;21.034;2022-10-26T11:38:37;17.10;;;11.35;;
24995;SDS011;13016;52.162;21.034;2022-10-26T11:44:39;14.23;;;10.70;;
24995;SDS011;13016;52.162;21.034;2022-10-26T11:55:55;17.33;;;11.43;;
24995;SDS011;13016;52.162;21.034;2022-10-26T11:58:24;15.55;;;10.48;;
24995;SDS011;13016;52.162;21.034;2022-10-26T12:00:55;15.88;;;9.98;;
24995;SDS011;13016;52.162;21.034;2022-10-26T12:03:26;18.75;;;10.75;;
24995;SDS011;13016;52.162;21.034;2022-10-26T12:05:54;19.60;;;11.40;;
24995;SDS011;13016;52.162;21.034;2022-10-26T12:08:30;15.20;;;10.30;;
24995;SDS011;13016;52.162;21.034;2022-10-26T12:11:08;18.70;;;11.43;;
24995;SDS011;13016;52.162;21.034;2022-10-26T12:14:00;15.95;;;10.75;;
24995;SDS011;13016;52.162;21.034;2022-10-26T12:22:35;20.63;;;11.18;;
24995;SDS011;13016;52.162;21.034;2022-10-26T12:33:56;18.60;;;10.88;;
24995;SDS011;13016;52.162;21.034;2022-10-26T12:39:26;19.42;;;11.73;;
24995;SDS011;13016;52.162;21.034;2022-10-26T12:52:46;18.42;;;11.27;;
24995;SDS011;13016;52.162;21.034;2022-10-26T13:03:33;15.27;;;10.80;;
24995;SDS011;13016;52.162;21.034;2022-10-26T13:09:05;16.08;;;10.88;;
24995;SDS011;13016;52.162;21.034;2022-10-26T13:11:34;16.55;;;10.77;;
24995;SDS011;13016;52.162;21.034;2022-10-26T13:14:04;17.95;;;10.27;;
24995;SDS011;13016;52.162;21.034;2022-10-26T13:19:20;16.40;;;10.02;;
24995;SDS011;13016;52.162;21.034;2022-10-26T13:21:48;16.65;;;10.35;;
24995;SDS011;13016;52.162;21.034;2022-10-26T13:24:13;15.88;;;10.52;;
24995;SDS011;13016;52.162;21.034;2022-10-26T13:29:29;16.00;;;10.88;;
24995;SDS011;13016;52.162;21.034;2022-10-26T13:31:56;17.08;;;11.40;;
24995;SDS011;13016;52.162;21.034;2022-10-26T13:34:23;25.13;;;13.80;;
24995;SDS011;13016;52.162;21.034;2022-10-26T13:39:41;19.25;;;12.63;;
24995;SDS011;13016;52.162;21.034;2022-10-26T13:42:17;22.50;;;13.10;;
24995;SDS011;13016;52.162;21.034;2022-10-26T13:47:47;19.48;;;13.02;;
24995;SDS011;13016;52.162;21.034;2022-10-26T13:50:21;20.70;;;13.15;;
24995;SDS011;13016;52.162;21.034;2022-10-26T13:52:50;17.25;;;12.13;;
24995;SDS011;13016;52.162;21.034;2022-10-26T14:03:35;16.85;;;10.80;;
24995;SDS011;13016;52.162;21.034;2022-10-26T14:06:05;19.05;;;12.32;;
24995;SDS011;13016;52.162;21.034;2022-10-26T14:08:43;20.70;;;11.50;;
24995;SDS011;13016;52.162;21.034;2022-10-26T14:11:09;16.38;;;11.30;;
24995;SDS011;13016;52.162;21.034;2022-10-26T14:13:40;15.77;;;10.77;;
24995;SDS011;13016;52.162;21.034;2022-10-26T14:16:11;16.58;;;10.20;;
24995;SDS011;13016;52.162;21.034;2022-10-26T14:18:41;21.05;;;10.45;;
24995;SDS011;13016;52.162;21.034;2022-10-26T14:21:10;16.38;;;10.00;;
24995;SDS011;13016;52.162;21.034;2022-10-26T14:23:46;15.88;;;8.93;;
24995;SDS011;13016;52.162;21.034;2022-10-26T14:26:23;14.30;;;9.05;;
24995;SDS011;13016;52.162;21.034;2022-10-26T14:28:55;13.90;;;9.00;;
24995;SDS011;13016;52.162;21.034;2022-10-26T14:31:26;17.65;;;10.38;;
24995;SDS011;13016;52.162;21.034;2022-10-26T14:33:56;17.48;;;11.20;;
24995;SDS011;13016;52.162;21.034;2022-10-26T14:36:35;17.33;;;11.60;;
24995;SDS011;13016;52.162;21.034;2022-10-26T14:39:05;19.95;;;10.77;;
24995;SDS011;13016;52.162;21.034;2022-10-26T14:44:14;16.60;;;12.00;;
24995;SDS011;13016;52.162;21.034;2022-10-26T14:46:43;18.35;;;11.43;;
24995;SDS011;13016;52.162;21.034;2022-10-26T14:57:29;20.38;;;10.05;;
24995;SDS011;13016;52.162;21.034;2022-10-26T15:00:00;17.38;;;10.35;;
24995;SDS011;13016;52.162;21.034;2022-10-26T15:02:28;14.05;;;10.00;;
24995;SDS011;13016;52.162;21.034;2022-10-26T15:05:01;16.60;;;10.05;;
24995;SDS011;13016;52.162;21.034;2022-10-26T15:07:39;14.80;;;9.68;;
24995;SDS011;13016;52.162;21.034;2022-10-26T15:10:05;15.77;;;9.75;;
24995;SDS011;13016;52.162;21.034;2022-10-26T15:12:31;14.35;;;9.30;;
24995;SDS011;13016;52.162;21.034;2022-10-26T15:17:48;16.95;;;10.38;;
24995;SDS011;13016;52.162;21.034;2022-10-26T15:20:15;16.17;;;10.63;;
24995;SDS011;13016;52.162;21.034;2022-10-26T15:22:58;17.13;;;9.93;;
24995;SDS011;13016;52.162;21.034;2022-10-26T15:28:40;16.35;;;11.07;;
24995;SDS011;13016;52.162;21.034;2022-10-26T15:36:18;20.95;;;11.77;;
24995;SDS011;13016;52.162;21.034;2022-10-26T15:38:46;18.80;;;11.80;;
24995;SDS011;13016;52.162;21.034;2022-10-26T15:41:15;16.35;;;11.18;;
24995;SDS011;13016;52.162;21.034;2022-10-26T15:43:48;19.40;;;12.80;;
24995;SDS011;13016;52.162;21.034;2022-10-26T15:46:14;18.70;;;12.02;;
24995;SDS011;13016;52.162;21.034;2022-10-26T15:48:40;18.23;;;11.43;;
24995;SDS011;13016;52.162;21.034;2022-10-26T15:51:08;17.50;;;11.45;;
24995;SDS011;13016;52.162;21.034;2022-10-26T15:53:36;18.73;;;11.50;;
24995;SDS011;13016;52.162;21.034;2022-10-26T15:56:04;18.52;;;10.95;;
24995;SDS011;13016;52.162;21.034;2022-10-26T15:58:37;31.85;;;22.58;;
24995;SDS011;13016;52.162;21.034;2022-10-26T16:01:02;22.02;;;12.88;;
24995;SDS011;13016;52.162;21.034;2022-10-26T16:03:31;18.33;;;11.10;;
24995;SDS011;13016;52.162;21.034;2022-10-26T16:05:58;20.55;;;10.85;;
24995;SDS011;13016;52.162;21.034;2022-10-26T16:08:30;16.85;;;11.13;;
24995;SDS011;13016;52.162;21.034;2022-10-26T16:10:56;19.83;;;10.40;;
24995;SDS011;13016;52.162;21.034;2022-10-26T16:13:22;17.30;;;10.40;;
24995;SDS011;13016;52.162;21.034;2022-10-26T16:18:24;17.05;;;10.98;;
24995;SDS011;13016;52.162;21.034;2022-10-26T16:20:49;17.77;;;10.70;;
24995;SDS011;13016;52.162;21.034;2022-10-26T16:23:15;20.13;;;11.75;;
24995;SDS011;13016;52.162;21.034;2022-10-26T16:25:41;16.17;;;10.98;;
24995;SDS011;13016;52.162;21.034;2022-10-26T16:28:10;16.58;;;11.20;;
24995;SDS011;13016;52.162;21.034;2022-10-26T16:36:25;15.88;;;10.27;;
24995;SDS011;13016;52.162;21.034;2022-10-26T16:41:57;17.52;;;11.38;;
24995;SDS011;13016;52.162;21.034;2022-10-26T16:47:22;17.52;;;11.48;;
24995;SDS011;13016;52.162;21.034;2022-10-26T16:49:47;19.45;;;12.10;;
24995;SDS011;13016;52.162;21.034;2022-10-26T16:52:27;18.92;;;12.02;;
24995;SDS011;13016;52.162;21.034;2022-10-26T16:54:52;18.92;;;11.63;;
24995;SDS011;13016;52.162;21.034;2022-10-26T16:57:18;17.08;;;10.95;;
24995;SDS011;13016;52.162;21.034;2022-10-26T16:59:43;22.70;;;12.02;;
24995;SDS011;13016;52.162;21.034;2022-10-26T17:02:09;21.25;;;12.10;;
24995;SDS011;13016;52.162;21.034;2022-10-26T17:04:37;18.17;;;11.68;;
24995;SDS011;13016;52.162;21.034;2022-10-26T17:07:03;19.55;;;12.00;;
24995;SDS011;13016;52.162;21.034;2022-10-26T17:09:28;19.33;;;11.45;;
24995;SDS011;13016;52.162;21.034;2022-10-26T17:11:53;19.23;;;11.48;;
24995;SDS011;13016;52.162;21.034;2022-10-26T17:14:18;18.65;;;11.82;;
24995;SDS011;13016;52.162;21.034;2022-10-26T17:16:44;19.33;;;12.23;;
24995;SDS011;13016;52.162;21.034;2022-10-26T17:19:09;19.15;;;11.32;;
24995;SDS011;13016;52.162;21.034;2022-10-26T17:21:35;20.33;;;12.27;;
24995;SDS011;13016;52.162;21.034;2022-10-26T17:24:00;22.40;;;13.38;;
24995;SDS011;13016;52.162;21.034;2022-10-26T17:26:26;17.50;;;12.30;;
24995;SDS011;13016;52.162;21.034;2022-10-26T17:28:52;19.92;;;12.45;;
24995;SDS011;13016;52.162;21.034;2022-10-26T17:31:20;21.35;;;12.38;;
24995;SDS011;13016;52.162;21.034;2022-10-26T17:33:45;20.15;;;11.88;;
24995;SDS011;13016;52.162;21.034;2022-10-26T17:36:11;17.65;;;11.70;;
24995;SDS011;13016;52.162;21.034;2022-10-26T17:38:38;21.85;;;12.57;;
24995;SDS011;13016;52.162;21.034;2022-10-26T17:41:06;15.45;;;11.65;;
24995;SDS011;13016;52.162;21.034;2022-10-26T17:43:33;19.05;;;12.23;;
24995;SDS011;13016;52.162;21.034;2022-10-26T17:46:00;17.33;;;11.43;;
24995;SDS011;13016;52.162;21.034;2022-10-26T17:48:28;20.48;;;12.25;;
24995;SDS011;13016;52.162;21.034;2022-10-26T17:50:56;20.33;;;12.98;;
24995;SDS011;13016;52.162;21.034;2022-10-26T17:53:23;21.33;;;12.38;;
24995;SDS011;13016;52.162;21.034;2022-10-26T17:55:48;19.90;;;12.80;;
24995;SDS011;13016;52.162;21.034;2022-10-26T17:58:13;22.30;;;13.35;;
24995;SDS011;13016;52.162;21.034;2022-10-26T18:00:39;18.38;;;12.82;;
24995;SDS011;13016;52.162;21.034;2022-10-26T18:03:04;24.17;;;12.90;;
24995;SDS011;13016;52.162;21.034;2022-10-26T18:05:29;19.48;;;13.15;;
24995;SDS011;13016;52.162;21.034;2022-10-26T18:07:55;23.15;;;13.95;;
24995;SDS011;13016;52.162;21.034;2022-10-26T18:10:20;18.08;;;12.65;;
24995;SDS011;13016;52.162;21.034;2022-10-26T18:12:45;22.23;;;13.43;;
24995;SDS011;13016;52.162;21.034;2022-10-26T18:15:11;23.25;;;13.13;;
24995;SDS011;13016;52.162;21.034;2022-10-26T18:17:50;21.83;;;14.25;;
24995;SDS011;13016;52.162;21.034;2022-10-26T18:20:15;21.20;;;13.25;;
24995;SDS011;13016;52.162;21.034;2022-10-26T18:25:44;21.75;;;12.90;;
24995;SDS011;13016;52.162;21.034;2022-10-26T18:28:09;20.95;;;12.93;;
24995;SDS011;13016;52.162;21.034;2022-10-26T18:30:35;21.33;;;13.93;;
24995;SDS011;13016;52.162;21.034;2022-10-26T18:33:15;22.13;;;13.25;;
24995;SDS011;13016;52.162;21.034;2022-10-26T18:35:40;23.35;;;13.25;;
24995;SDS011;13016;52.162;21.034;2022-10-26T18:38:06;19.95;;;13.25;;
24995;SDS011;13016;52.162;21.034;2022-10-26T18:40:31;26.60;;;14.27;;
24995;SDS011;13016;52.162;21.034;2022-10-26T18:43:02;26.35;;;14.60;;
24995;SDS011;13016;52.162;21.034;2022-10-26T18:45:27;25.98;;;13.95;;
24995;SDS011;13016;52.162;21.034;2022-10-26T18:47:53;27.17;;;14.27;;
24995;SDS011;13016;52.162;21.034;2022-10-26T18:50:18;23.88;;;14.55;;
24995;SDS011;13016;52.162;21.034;2022-10-26T18:52:43;19.48;;;12.73;;
24995;SDS011;13016;52.162;21.034;2022-10-26T18:55:10;28.60;;;14.93;;
24995;SDS011;13016;52.162;21.034;2022-10-26T18:57:35;23.92;;;13.93;;
24995;SDS011;13016;52.162;21.034;2022-10-26T19:00:03;23.92;;;14.15;;
24995;SDS011;13016;52.162;21.034;2022-10-26T19:02:29;27.63;;;15.75;;
24995;SDS011;13016;52.162;21.034;2022-10-26T19:04:55;25.45;;;15.35;;
24995;SDS011;13016;52.162;21.034;2022-10-26T19:07:20;22.95;;;13.98;;
24995;SDS011;13016;52.162;21.034;2022-10-26T19:09:45;26.02;;;15.38;;